Hayase Maru — JD2583 — position and weather

sailwx.info

Track history (hours):
 
Tides and Currents Weather Stations Pressure Air Temp Water Temp Dewpoint Dewpoint Depression Visibility Wind Speed Wind Dir Waves Ship Positions

Hayase Maru

Last reported at 2015-Jun-29 15:16 UTC. Time now 2015-Jul-02 23:06 UTC.
Position N 35°04' E 140°17'.

Length 73 m; draft 4 m.

Type: Ship. MMSI: 431000395.

Date/timePositionNaut miles runAvg speedWind from/ knotsBaromVisibWave heightAir tempDewpointWater temp
2015-Jun-29 15:16N 35°04' E 140°17'810.9
2015-Jun-29 14:33N 34°59' E 140°09'1110.5
2015-Jun-29 13:29N 34°53' E 139°58'12 9.2
2015-Jun-29 12:12N 34°51' E 139°43'237 9.1
2015-Jun-28 10:13N 34°10' E 134°60'810.1
2015-Jun-28 09:28N 34°18' E 134°59'910.4
2015-Jun-28 08:33N 34°27' E 135°01'10 9.5
2015-Jun-28 07:31N 34°37' E 135°02'9 8.8
2015-Jun-28 06:30N 34°38' E 134°51'  
2015-Jun-25 16:24N 34°41' E 134°45'1011.4
2015-Jun-25 15:33N 34°38' E 134°56'9 8.6
2015-Jun-25 14:34N 34°33' E 135°05'1611.1
2015-Jun-25 13:10N 34°18' E 134°60'610.6
2015-Jun-25 12:33N 34°11' E 134°60'227 8.7
2015-Jun-24 10:25N 35°00' E 139°29'1210.5
2015-Jun-24 09:18N 35°07' E 139°41'810.4
2015-Jun-24 08:33N 35°13' E 139°46'1010.2
2015-Jun-24 07:34N 35°23' E 139°42'8 7.8
2015-Jun-24 06:34N 35°30' E 139°45'0 0.3
2015-Jun-24 05:32N 35°31' E 139°45'0 0.0
2015-Jun-24 04:32N 35°31' E 139°45'0 0.0
2015-Jun-24 03:32N 35°31' E 139°45'0 0.0
2015-Jun-24 02:32N 35°31' E 139°45'0 0.0
2015-Jun-24 01:32N 35°31' E 139°45'0 0.0
2015-Jun-24 00:32N 35°31' E 139°45'0 0.0
2015-Jun-23 23:32N 35°31' E 139°45'0 0.0
2015-Jun-23 22:33N 35°31' E 139°45'3 3.1
2015-Jun-23 21:32N 35°30' E 139°49'0 0.0
2015-Jun-23 20:29N 35°30' E 139°49'0 0.0
2015-Jun-23 19:29N 35°30' E 139°49'0 0.0
2015-Jun-23 19:05N 35°30' E 139°49'6 0.3
2015-Jun-22 19:31N 35°35' E 139°52'0 0.0
2015-Jun-22 18:28N 35°35' E 139°52'0 0.0
2015-Jun-22 17:19N 35°35' E 139°52'0 0.0
2015-Jun-22 16:31N 35°35' E 139°52'0 0.0
2015-Jun-22 15:31N 35°35' E 139°52'0 0.0
2015-Jun-22 14:25N 35°35' E 139°52'0 0.0
2015-Jun-22 13:28N 35°35' E 139°52'0 0.0
2015-Jun-22 12:25N 35°35' E 139°52'0 0.0
2015-Jun-22 11:31N 35°35' E 139°52'0 0.0
2015-Jun-22 10:31N 35°35' E 139°52'0 0.0
2015-Jun-22 09:28N 35°35' E 139°52'0 0.1
2015-Jun-22 08:28N 35°35' E 139°52'1011.4
2015-Jun-22 07:34N 35°27' E 139°44'4 4.1
2015-Jun-22 06:33N 35°24' E 139°40'0 0.0
2015-Jun-22 05:33N 35°24' E 139°40'0 0.0
2015-Jun-22 04:33N 35°24' E 139°40'0 0.0
2015-Jun-22 03:33N 35°24' E 139°40'0 0.0
2015-Jun-22 02:33N 35°24' E 139°40'7 6.9
2015-Jun-22 01:33N 35°18' E 139°44'1010.1
2015-Jun-22 00:33N 35°08' E 139°46'1110.7
2015-Jun-21 23:30N 34°57' E 139°44'11 9.3
2015-Jun-21 22:17N 34°52' E 139°57'810.5
2015-Jun-21 21:33N 34°57' E 140°05'2410.3
2015-Jun-21 19:11N 35°12' E 140°28'6 9.9
2015-Jun-21 18:33N 35°17' E 140°32'1110.7
2015-Jun-21 17:33N 35°26' E 140°40'1210.8
2015-Jun-21 16:25N 35°36' E 140°49'1010.4
2015-Jun-21 15:29N 35°44' E 140°55'1010.9
2015-Jun-21 14:33N 35°53' E 140°48'6 6.1
2015-Jun-21 13:33N 35°55' E 140°41'1 0.1
2015-Jun-21 03:14N 35°56' E 140°40'5 7.2
2015-Jun-21 02:33N 35°60' E 140°43'  
Track history (hours):
 
Tides and Currents Weather Stations Pressure Air Temp Water Temp Dewpoint Dewpoint Depression Visibility Wind Speed Wind Dir Waves Ship Positions

Hayase Maru

Last reported at 2015-Jun-29 15:16 UTC. Time now 2015-Jul-02 23:06 UTC.
Position N 35°04' E 140°17'.

Length 73 m; draft 4 m.

Type: Ship. MMSI: 431000395.

Date/timePositionNaut miles runAvg speedWind from/ knotsBaromVisibWave heightAir tempDewpointWater temp
2015-Jun-29 15:16N 35°04' E 140°17'810.9
2015-Jun-29 14:33N 34°59' E 140°09'1110.5
2015-Jun-29 13:29N 34°53' E 139°58'12 9.2
2015-Jun-29 12:12N 34°51' E 139°43'237 9.1
2015-Jun-28 10:13N 34°10' E 134°60'810.1
2015-Jun-28 09:28N 34°18' E 134°59'910.4
2015-Jun-28 08:33N 34°27' E 135°01'10 9.5
2015-Jun-28 07:31N 34°37' E 135°02'9 8.8
2015-Jun-28 06:30N 34°38' E 134°51'  
2015-Jun-25 16:24N 34°41' E 134°45'1011.4
2015-Jun-25 15:33N 34°38' E 134°56'9 8.6
2015-Jun-25 14:34N 34°33' E 135°05'1611.1
2015-Jun-25 13:10N 34°18' E 134°60'610.6
2015-Jun-25 12:33N 34°11' E 134°60'227 8.7
2015-Jun-24 10:25N 35°00' E 139°29'1210.5
2015-Jun-24 09:18N 35°07' E 139°41'810.4
2015-Jun-24 08:33N 35°13' E 139°46'1010.2
2015-Jun-24 07:34N 35°23' E 139°42'8 7.8
2015-Jun-24 06:34N 35°30' E 139°45'0 0.3
2015-Jun-24 05:32N 35°31' E 139°45'0 0.0
2015-Jun-24 04:32N 35°31' E 139°45'0 0.0
2015-Jun-24 03:32N 35°31' E 139°45'0 0.0
2015-Jun-24 02:32N 35°31' E 139°45'0 0.0
2015-Jun-24 01:32N 35°31' E 139°45'0 0.0
2015-Jun-24 00:32N 35°31' E 139°45'0 0.0
2015-Jun-23 23:32N 35°31' E 139°45'0 0.0
2015-Jun-23 22:33N 35°31' E 139°45'3 3.1
2015-Jun-23 21:32N 35°30' E 139°49'0 0.0
2015-Jun-23 20:29N 35°30' E 139°49'0 0.0
2015-Jun-23 19:29N 35°30' E 139°49'0 0.0
2015-Jun-23 19:05N 35°30' E 139°49'6 0.3
2015-Jun-22 19:31N 35°35' E 139°52'0 0.0
2015-Jun-22 18:28N 35°35' E 139°52'0 0.0
2015-Jun-22 17:19N 35°35' E 139°52'0 0.0
2015-Jun-22 16:31N 35°35' E 139°52'0 0.0
2015-Jun-22 15:31N 35°35' E 139°52'0 0.0
2015-Jun-22 14:25N 35°35' E 139°52'0 0.0
2015-Jun-22 13:28N 35°35' E 139°52'0 0.0
2015-Jun-22 12:25N 35°35' E 139°52'0 0.0
2015-Jun-22 11:31N 35°35' E 139°52'0 0.0
2015-Jun-22 10:31N 35°35' E 139°52'0 0.0
2015-Jun-22 09:28N 35°35' E 139°52'0 0.1
2015-Jun-22 08:28N 35°35' E 139°52'1011.4
2015-Jun-22 07:34N 35°27' E 139°44'4 4.1
2015-Jun-22 06:33N 35°24' E 139°40'0 0.0
2015-Jun-22 05:33N 35°24' E 139°40'0 0.0
2015-Jun-22 04:33N 35°24' E 139°40'0 0.0
2015-Jun-22 03:33N 35°24' E 139°40'0 0.0
2015-Jun-22 02:33N 35°24' E 139°40'7 6.9
2015-Jun-22 01:33N 35°18' E 139°44'1010.1
2015-Jun-22 00:33N 35°08' E 139°46'1110.7
2015-Jun-21 23:30N 34°57' E 139°44'11 9.3
2015-Jun-21 22:17N 34°52' E 139°57'810.5
2015-Jun-21 21:33N 34°57' E 140°05'2410.3
2015-Jun-21 19:11N 35°12' E 140°28'6 9.9
2015-Jun-21 18:33N 35°17' E 140°32'1110.7
2015-Jun-21 17:33N 35°26' E 140°40'1210.8
2015-Jun-21 16:25N 35°36' E 140°49'1010.4
2015-Jun-21 15:29N 35°44' E 140°55'1010.9
2015-Jun-21 14:33N 35°53' E 140°48'6 6.1
2015-Jun-21 13:33N 35°55' E 140°41'1 0.1
2015-Jun-21 03:14N 35°56' E 140°40'5 7.2
2015-Jun-21 02:33N 35°60' E 140°43'  

Dump ship's entire track history